sensor_id;sensor_type;location;lat;lon;timestamp;pressure;altitude;pressure_sealevel;temperature;humidity
64141;BME280;50436;50.618;7.932;2023-06-22T00:02:04;96740.19;;;20.74;100.00
64141;BME280;50436;50.618;7.932;2023-06-22T00:04:49;96738.34;;;20.83;100.00
64141;BME280;50436;50.618;7.932;2023-06-22T00:07:35;96730.31;;;20.78;100.00
64141;BME280;50436;50.618;7.932;2023-06-22T00:10:21;96735.03;;;20.86;100.00
64141;BME280;50436;50.618;7.932;2023-06-22T00:13:08;96730.50;;;20.81;100.00
64141;BME280;50436;50.618;7.932;2023-06-22T00:15:54;96723.03;;;20.87;100.00
64141;BME280;50436;50.618;7.932;2023-06-22T00:21:32;96722.59;;;20.71;100.00
64141;BME280;50436;50.618;7.932;2023-06-22T00:24:19;96734.84;;;20.69;100.00
64141;BME280;50436;50.618;7.932;2023-06-22T00:27:05;96730.94;;;20.61;100.00
64141;BME280;50436;50.618;7.932;2023-06-22T00:29:51;96725.34;;;20.57;100.00
64141;BME280;50436;50.618;7.932;2023-06-22T00:32:37;96715.88;;;20.41;100.00
64141;BME280;50436;50.618;7.932;2023-06-22T00:35:23;96725.34;;;20.44;100.00
64141;BME280;50436;50.618;7.932;2023-06-22T00:38:13;96724.84;;;20.42;100.00
64141;BME280;50436;50.618;7.932;2023-06-22T00:41:01;96728.78;;;20.49;100.00
64141;BME280;50436;50.618;7.932;2023-06-22T00:43:47;96725.03;;;20.45;100.00
64141;BME280;50436;50.618;7.932;2023-06-22T00:46:33;96732.28;;;20.50;100.00
64141;BME280;50436;50.618;7.932;2023-06-22T00:49:19;96738.34;;;20.47;100.00
64141;BME280;50436;50.618;7.932;2023-06-22T00:52:06;96755.25;;;20.44;100.00
64141;BME280;50436;50.618;7.932;2023-06-22T00:54:56;96757.97;;;20.57;100.00
64141;BME280;50436;50.618;7.932;2023-06-22T00:57:42;96753.25;;;20.49;100.00
64141;BME280;50436;50.618;7.932;2023-06-22T01:00:28;96753.72;;;20.38;100.00
64141;BME280;50436;50.618;7.932;2023-06-22T01:03:14;96747.31;;;20.47;100.00
64141;BME280;50436;50.618;7.932;2023-06-22T01:06:08;96745.47;;;20.43;100.00
64141;BME280;50436;50.618;7.932;2023-06-22T01:09:15;96748.41;;;20.46;100.00
64141;BME280;50436;50.618;7.932;2023-06-22T01:12:06;96747.91;;;20.44;100.00
64141;BME280;50436;50.618;7.932;2023-06-22T01:14:58;96755.03;;;20.54;100.00
64141;BME280;50436;50.618;7.932;2023-06-22T01:17:48;96766.72;;;20.41;100.00
64141;BME280;50436;50.618;7.932;2023-06-22T01:20:37;96767.63;;;20.36;100.00
64141;BME280;50436;50.618;7.932;2023-06-22T01:26:22;96777.88;;;20.12;100.00
64141;BME280;50436;50.618;7.932;2023-06-22T01:29:14;96766.63;;;20.04;100.00
64141;BME280;50436;50.618;7.932;2023-06-22T01:32:02;96770.75;;;20.02;100.00
64141;BME280;50436;50.618;7.932;2023-06-22T01:34:49;96765.31;;;20.02;100.00
64141;BME280;50436;50.618;7.932;2023-06-22T01:37:37;96755.84;;;20.13;100.00
64141;BME280;50436;50.618;7.932;2023-06-22T01:40:24;96756.97;;;20.12;100.00
64141;BME280;50436;50.618;7.932;2023-06-22T01:43:11;96747.28;;;20.06;100.00
64141;BME280;50436;50.618;7.932;2023-06-22T01:45:59;96751.53;;;20.12;100.00
64141;BME280;50436;50.618;7.932;2023-06-22T01:48:49;96743.69;;;20.11;100.00
64141;BME280;50436;50.618;7.932;2023-06-22T01:51:35;96743.09;;;20.00;100.00
64141;BME280;50436;50.618;7.932;2023-06-22T01:54:21;96744.78;;;19.82;100.00
64141;BME280;50436;50.618;7.932;2023-06-22T01:57:07;96742.28;;;19.86;100.00
64141;BME280;50436;50.618;7.932;2023-06-22T02:00:04;96725.16;;;19.99;100.00
64141;BME280;50436;50.618;7.932;2023-06-22T02:03:05;96732.72;;;19.88;100.00
64141;BME280;50436;50.618;7.932;2023-06-22T02:05:58;96734.03;;;19.91;100.00
64141;BME280;50436;50.618;7.932;2023-06-22T02:08:54;96723.19;;;19.77;100.00
64141;BME280;50436;50.618;7.932;2023-06-22T02:11:42;96720.47;;;19.77;100.00
64141;BME280;50436;50.618;7.932;2023-06-22T02:14:30;96711.09;;;19.83;100.00
64141;BME280;50436;50.618;7.932;2023-06-22T02:17:17;96701.84;;;19.84;100.00
64141;BME280;50436;50.618;7.932;2023-06-22T02:20:04;96707.47;;;19.88;100.00
64141;BME280;50436;50.618;7.932;2023-06-22T02:22:55;96717.31;;;19.84;100.00
64141;BME280;50436;50.618;7.932;2023-06-22T02:25:41;96715.63;;;19.88;100.00
64141;BME280;50436;50.618;7.932;2023-06-22T02:28:30;96731.81;;;19.79;100.00
64141;BME280;50436;50.618;7.932;2023-06-22T02:31:16;96729.00;;;19.70;100.00
64141;BME280;50436;50.618;7.932;2023-06-22T02:34:01;96735.41;;;19.61;100.00
64141;BME280;50436;50.618;7.932;2023-06-22T02:36:50;96735.41;;;19.61;100.00
64141;BME280;50436;50.618;7.932;2023-06-22T02:39:36;96732.50;;;19.57;100.00
64141;BME280;50436;50.618;7.932;2023-06-22T02:42:22;96727.06;;;19.57;100.00
64141;BME280;50436;50.618;7.932;2023-06-22T02:45:08;96718.72;;;19.67;100.00
64141;BME280;50436;50.618;7.932;2023-06-22T02:47:55;96718.53;;;19.78;100.00
64141;BME280;50436;50.618;7.932;2023-06-22T02:50:41;96714.09;;;19.82;100.00
64141;BME280;50436;50.618;7.932;2023-06-22T02:53:27;96718.94;;;19.85;100.00
64141;BME280;50436;50.618;7.932;2023-06-22T02:56:13;96711.41;;;19.82;100.00
64141;BME280;50436;50.618;7.932;2023-06-22T02:58:59;96704.34;;;19.81;100.00
64141;BME280;50436;50.618;7.932;2023-06-22T03:01:55;96697.81;;;19.82;100.00
64141;BME280;50436;50.618;7.932;2023-06-22T03:04:45;96689.66;;;19.82;100.00
64141;BME280;50436;50.618;7.932;2023-06-22T03:07:34;96690.69;;;19.86;100.00
64141;BME280;50436;50.618;7.932;2023-06-22T03:10:20;96696.41;;;19.84;100.00
64141;BME280;50436;50.618;7.932;2023-06-22T03:13:06;96697.13;;;19.90;100.00
64141;BME280;50436;50.618;7.932;2023-06-22T03:15:52;96707.38;;;19.93;100.00
64141;BME280;50436;50.618;7.932;2023-06-22T03:18:38;96714.72;;;19.92;100.00
64141;BME280;50436;50.618;7.932;2023-06-22T03:21:28;96705.47;;;19.80;100.00
64141;BME280;50436;50.618;7.932;2023-06-22T03:24:14;96721.94;;;19.83;100.00
64141;BME280;50436;50.618;7.932;2023-06-22T03:27:00;96720.56;;;19.86;100.00
64141;BME280;50436;50.618;7.932;2023-06-22T03:29:50;96725.19;;;19.85;100.00
64141;BME280;50436;50.618;7.932;2023-06-22T03:32:36;96724.38;;;19.85;100.00
64141;BME280;50436;50.618;7.932;2023-06-22T03:35:24;96730.72;;;19.94;100.00
64141;BME280;50436;50.618;7.932;2023-06-22T03:38:10;96720.84;;;19.84;100.00
64141;BME280;50436;50.618;7.932;2023-06-22T03:40:56;96727.59;;;19.87;100.00
64141;BME280;50436;50.618;7.932;2023-06-22T03:43:42;96727.38;;;19.83;100.00
64141;BME280;50436;50.618;7.932;2023-06-22T03:46:28;96729.19;;;19.88;100.00
64141;BME280;50436;50.618;7.932;2023-06-22T03:49:14;96725.78;;;19.82;100.00
64141;BME280;50436;50.618;7.932;2023-06-22T03:52:01;96716.13;;;19.62;100.00
64141;BME280;50436;50.618;7.932;2023-06-22T03:54:50;96712.88;;;19.60;100.00
64141;BME280;50436;50.618;7.932;2023-06-22T03:57:35;96702.31;;;19.59;100.00
64141;BME280;50436;50.618;7.932;2023-06-22T04:00:22;96700.41;;;19.59;100.00
64141;BME280;50436;50.618;7.932;2023-06-22T04:03:11;96714.00;;;19.73;100.00
64141;BME280;50436;50.618;7.932;2023-06-22T04:05:57;96710.50;;;19.72;100.00
64141;BME280;50436;50.618;7.932;2023-06-22T04:08:45;96711.81;;;19.61;100.00
64141;BME280;50436;50.618;7.932;2023-06-22T04:11:33;96713.66;;;19.47;100.00
64141;BME280;50436;50.618;7.932;2023-06-22T04:14:19;96706.63;;;19.46;100.00
64141;BME280;50436;50.618;7.932;2023-06-22T04:17:06;96696.41;;;19.57;100.00
64141;BME280;50436;50.618;7.932;2023-06-22T04:19:52;96702.44;;;19.67;100.00
64141;BME280;50436;50.618;7.932;2023-06-22T04:22:37;96694.28;;;19.67;100.00
64141;BME280;50436;50.618;7.932;2023-06-22T04:25:23;96702.25;;;19.78;100.00
64141;BME280;50436;50.618;7.932;2023-06-22T04:28:09;96696.94;;;19.86;100.00
64141;BME280;50436;50.618;7.932;2023-06-22T04:30:58;96702.25;;;19.78;100.00
64141;BME280;50436;50.618;7.932;2023-06-22T04:33:49;96706.47;;;19.84;100.00
64141;BME280;50436;50.618;7.932;2023-06-22T04:36:39;96686.56;;;19.74;100.00
64141;BME280;50436;50.618;7.932;2023-06-22T04:39:26;96692.19;;;19.78;100.00
64141;BME280;50436;50.618;7.932;2023-06-22T04:42:12;96691.97;;;19.74;100.00
64141;BME280;50436;50.618;7.932;2023-06-22T04:44:58;96680.72;;;19.67;100.00
64141;BME280;50436;50.618;7.932;2023-06-22T04:47:44;96677.31;;;19.62;100.00
64141;BME280;50436;50.618;7.932;2023-06-22T04:50:31;96665.03;;;19.64;100.00
64141;BME280;50436;50.618;7.932;2023-06-22T04:53:16;96671.38;;;19.60;100.00
64141;BME280;50436;50.618;7.932;2023-06-22T04:56:02;96667.31;;;19.43;100.00
64141;BME280;50436;50.618;7.932;2023-06-22T04:58:50;96658.84;;;19.45;100.00
64141;BME280;50436;50.618;7.932;2023-06-22T05:01:37;96677.28;;;19.48;100.00
64141;BME280;50436;50.618;7.932;2023-06-22T05:04:23;96674.38;;;19.58;100.00
64141;BME280;50436;50.618;7.932;2023-06-22T05:07:09;96681.13;;;19.74;100.00
64141;BME280;50436;50.618;7.932;2023-06-22T05:09:55;96672.41;;;19.78;100.00
64141;BME280;50436;50.618;7.932;2023-06-22T05:12:42;96668.03;;;19.90;100.00
64141;BME280;50436;50.618;7.932;2023-06-22T05:15:29;96667.25;;;19.90;100.00
64141;BME280;50436;50.618;7.932;2023-06-22T05:18:16;96668.25;;;19.94;100.00
64141;BME280;50436;50.618;7.932;2023-06-22T05:21:02;96659.41;;;19.88;100.00
64141;BME280;50436;50.618;7.932;2023-06-22T05:23:48;96664.66;;;19.85;100.00
64141;BME280;50436;50.618;7.932;2023-06-22T05:26:35;96652.88;;;19.75;100.00
64141;BME280;50436;50.618;7.932;2023-06-22T05:29:20;96653.16;;;19.88;100.00
64141;BME280;50436;50.618;7.932;2023-06-22T05:32:08;96658.38;;;19.98;100.00
64141;BME280;50436;50.618;7.932;2023-06-22T05:34:54;96669.72;;;20.14;100.00
64141;BME280;50436;50.618;7.932;2023-06-22T05:37:40;96659.56;;;20.19;100.00
64141;BME280;50436;50.618;7.932;2023-06-22T05:40:26;96663.06;;;20.34;100.00
64141;BME280;50436;50.618;7.932;2023-06-22T05:43:13;96662.19;;;20.61;100.00
64141;BME280;50436;50.618;7.932;2023-06-22T05:46:01;96651.25;;;20.74;100.00
64141;BME280;50436;50.618;7.932;2023-06-22T05:48:47;96656.28;;;20.81;100.00
64141;BME280;50436;50.618;7.932;2023-06-22T05:51:33;96647.69;;;20.88;100.00
64141;BME280;50436;50.618;7.932;2023-06-22T05:54:19;96649.63;;;21.18;100.00
64141;BME280;50436;50.618;7.932;2023-06-22T05:57:05;96657.91;;;21.35;100.00
64141;BME280;50436;50.618;7.932;2023-06-22T05:59:51;96651.06;;;21.47;100.00
64141;BME280;50436;50.618;7.932;2023-06-22T06:02:37;96652.09;;;21.59;100.00
64141;BME280;50436;50.618;7.932;2023-06-22T06:05:30;96659.94;;;21.61;100.00
64141;BME280;50436;50.618;7.932;2023-06-22T06:08:16;96656.28;;;21.65;100.00
64141;BME280;50436;50.618;7.932;2023-06-22T06:11:02;96651.19;;;21.73;100.00
64141;BME280;50436;50.618;7.932;2023-06-22T06:13:48;96667.25;;;21.91;100.00
64141;BME280;50436;50.618;7.932;2023-06-22T06:16:34;96660.22;;;21.90;100.00
64141;BME280;50436;50.618;7.932;2023-06-22T06:19:20;96659.28;;;21.95;100.00
64141;BME280;50436;50.618;7.932;2023-06-22T06:22:06;96662.81;;;22.04;100.00
64141;BME280;50436;50.618;7.932;2023-06-22T06:24:53;96663.22;;;22.29;100.00
64141;BME280;50436;50.618;7.932;2023-06-22T06:27:39;96665.66;;;22.65;100.00
64141;BME280;50436;50.618;7.932;2023-06-22T06:30:25;96655.03;;;22.72;100.00
64141;BME280;50436;50.618;7.932;2023-06-22T06:33:11;96656.50;;;22.95;100.00
64141;BME280;50436;50.618;7.932;2023-06-22T06:35:57;96661.63;;;23.05;100.00
64141;BME280;50436;50.618;7.932;2023-06-22T06:38:44;96663.88;;;23.12;100.00
64141;BME280;50436;50.618;7.932;2023-06-22T06:41:30;96669.81;;;23.05;100.00
64141;BME280;50436;50.618;7.932;2023-06-22T06:44:19;96673.06;;;22.90;100.00
64141;BME280;50436;50.618;7.932;2023-06-22T06:47:05;96657.13;;;23.01;100.00
64141;BME280;50436;50.618;7.932;2023-06-22T06:49:51;96660.63;;;23.19;100.00
64141;BME280;50436;50.618;7.932;2023-06-22T06:52:37;96659.16;;;23.30;100.00
64141;BME280;50436;50.618;7.932;2023-06-22T06:55:23;96656.38;;;23.47;100.00
64141;BME280;50436;50.618;7.932;2023-06-22T06:58:11;96650.09;;;23.55;100.00
64141;BME280;50436;50.618;7.932;2023-06-22T07:00:58;96656.13;;;23.78;100.00
64141;BME280;50436;50.618;7.932;2023-06-22T07:03:44;96654.72;;;24.02;100.00
64141;BME280;50436;50.618;7.932;2023-06-22T07:06:30;96663.59;;;24.19;100.00
64141;BME280;50436;50.618;7.932;2023-06-22T07:09:17;96660.41;;;24.17;100.00
64141;BME280;50436;50.618;7.932;2023-06-22T07:12:04;96654.59;;;24.19;100.00
64141;BME280;50436;50.618;7.932;2023-06-22T07:14:52;96639.03;;;23.90;100.00
64141;BME280;50436;50.618;7.932;2023-06-22T07:17:38;96637.34;;;24.06;100.00
64141;BME280;50436;50.618;7.932;2023-06-22T07:20:27;96631.31;;;24.42;100.00
64141;BME280;50436;50.618;7.932;2023-06-22T07:23:13;96627.50;;;24.35;100.00
64141;BME280;50436;50.618;7.932;2023-06-22T07:25:59;96634.94;;;24.26;100.00
64141;BME280;50436;50.618;7.932;2023-06-22T07:28:48;96631.31;;;24.42;100.00
64141;BME280;50436;50.618;7.932;2023-06-22T07:31:33;96636.09;;;24.25;100.00
64141;BME280;50436;50.618;7.932;2023-06-22T07:34:19;96644.09;;;24.30;100.00
64141;BME280;50436;50.618;7.932;2023-06-22T07:37:05;96635.66;;;24.43;100.00
64141;BME280;50436;50.618;7.932;2023-06-22T07:39:51;96639.66;;;24.46;100.00
64141;BME280;50436;50.618;7.932;2023-06-22T07:42:39;96629.47;;;24.26;100.00
64141;BME280;50436;50.618;7.932;2023-06-22T07:45:25;96625.41;;;24.32;100.00
64141;BME280;50436;50.618;7.932;2023-06-22T07:48:11;96618.59;;;24.47;100.00
64141;BME280;50436;50.618;7.932;2023-06-22T07:50:57;96621.44;;;24.50;100.00
64141;BME280;50436;50.618;7.932;2023-06-22T07:53:43;96606.97;;;24.50;100.00
64141;BME280;50436;50.618;7.932;2023-06-22T07:56:29;96612.06;;;24.39;100.00
64141;BME280;50436;50.618;7.932;2023-06-22T07:59:15;96612.16;;;24.22;100.00
64141;BME280;50436;50.618;7.932;2023-06-22T08:02:01;96610.94;;;24.31;100.00
64141;BME280;50436;50.618;7.932;2023-06-22T08:04:48;96605.91;;;24.21;100.00
64141;BME280;50436;50.618;7.932;2023-06-22T08:07:38;96609.63;;;24.16;100.00
64141;BME280;50436;50.618;7.932;2023-06-22T08:10:24;96609.59;;;24.46;100.00
64141;BME280;50436;50.618;7.932;2023-06-22T08:13:10;96598.75;;;24.29;100.00
64141;BME280;50436;50.618;7.932;2023-06-22T08:15:56;96608.19;;;24.40;100.00
64141;BME280;50436;50.618;7.932;2023-06-22T08:18:42;96599.06;;;24.06;100.00
64141;BME280;50436;50.618;7.932;2023-06-22T08:21:28;96604.81;;;24.13;100.00
64141;BME280;50436;50.618;7.932;2023-06-22T08:24:14;96591.50;;;23.82;100.00
64141;BME280;50436;50.618;7.932;2023-06-22T08:27:00;96586.91;;;23.95;100.00
64141;BME280;50436;50.618;7.932;2023-06-22T08:29:46;96566.69;;;24.17;100.00
64141;BME280;50436;50.618;7.932;2023-06-22T08:32:33;96576.53;;;24.51;100.00
64141;BME280;50436;50.618;7.932;2023-06-22T08:35:19;96578.19;;;24.97;100.00
64141;BME280;50436;50.618;7.932;2023-06-22T08:38:05;96565.56;;;25.05;100.00
64141;BME280;50436;50.618;7.932;2023-06-22T08:40:51;96572.09;;;25.13;100.00
64141;BME280;50436;50.618;7.932;2023-06-22T08:43:36;96556.28;;;24.97;100.00
64141;BME280;50436;50.618;7.932;2023-06-22T08:46:22;96554.97;;;25.04;100.00
64141;BME280;50436;50.618;7.932;2023-06-22T08:49:15;96553.66;;;25.34;100.00
64141;BME280;50436;50.618;7.932;2023-06-22T08:52:01;96554.47;;;25.71;100.00
64141;BME280;50436;50.618;7.932;2023-06-22T08:54:47;96556.03;;;25.97;100.00
64141;BME280;50436;50.618;7.932;2023-06-22T08:57:33;96547.53;;;26.26;100.00
64141;BME280;50436;50.618;7.932;2023-06-22T09:00:19;96550.53;;;26.09;100.00
64141;BME280;50436;50.618;7.932;2023-06-22T09:03:05;96532.44;;;25.92;100.00
64141;BME280;50436;50.618;7.932;2023-06-22T09:05:52;96546.56;;;25.94;100.00
64141;BME280;50436;50.618;7.932;2023-06-22T09:08:38;96557.81;;;25.77;100.00
64141;BME280;50436;50.618;7.932;2023-06-22T09:11:23;96537.22;;;25.83;100.00
64141;BME280;50436;50.618;7.932;2023-06-22T09:14:10;96542.97;;;26.18;100.00
64141;BME280;50436;50.618;7.932;2023-06-22T09:16:56;96525.88;;;26.09;100.00
64141;BME280;50436;50.618;7.932;2023-06-22T09:19:42;96525.59;;;26.26;100.00
64141;BME280;50436;50.618;7.932;2023-06-22T09:22:28;96511.00;;;26.10;100.00
64141;BME280;50436;50.618;7.932;2023-06-22T09:25:14;96519.03;;;26.71;100.00
64141;BME280;50436;50.618;7.932;2023-06-22T09:28:00;96522.91;;;27.14;100.00
64141;BME280;50436;50.618;7.932;2023-06-22T09:30:46;96519.72;;;27.12;100.00
64141;BME280;50436;50.618;7.932;2023-06-22T09:33:32;96503.41;;;27.51;100.00
64141;BME280;50436;50.618;7.932;2023-06-22T09:36:18;96499.47;;;26.88;100.00
64141;BME280;50436;50.618;7.932;2023-06-22T09:39:04;96490.09;;;26.89;100.00
64141;BME280;50436;50.618;7.932;2023-06-22T09:41:52;96480.28;;;27.20;100.00
64141;BME280;50436;50.618;7.932;2023-06-22T09:44:38;96466.41;;;26.69;100.00
64141;BME280;50436;50.618;7.932;2023-06-22T09:47:24;96462.53;;;27.49;100.00
64141;BME280;50436;50.618;7.932;2023-06-22T09:50:10;96466.03;;;28.00;100.00
64141;BME280;50436;50.618;7.932;2023-06-22T09:52:56;96475.53;;;27.17;100.00
64141;BME280;50436;50.618;7.932;2023-06-22T09:55:42;96468.50;;;27.35;100.00
64141;BME280;50436;50.618;7.932;2023-06-22T09:58:28;96463.25;;;27.30;100.00
64141;BME280;50436;50.618;7.932;2023-06-22T10:01:13;96446.41;;;27.47;100.00
64141;BME280;50436;50.618;7.932;2023-06-22T10:04:02;96441.06;;;27.90;100.00
64141;BME280;50436;50.618;7.932;2023-06-22T10:06:48;96439.94;;;28.10;99.65
64141;BME280;50436;50.618;7.932;2023-06-22T10:09:34;96447.06;;;27.25;100.00
64141;BME280;50436;50.618;7.932;2023-06-22T10:12:20;96453.38;;;27.10;100.00
64141;BME280;50436;50.618;7.932;2023-06-22T10:15:07;96440.34;;;27.58;100.00
64141;BME280;50436;50.618;7.932;2023-06-22T10:17:53;96436.69;;;27.34;100.00
64141;BME280;50436;50.618;7.932;2023-06-22T10:20:39;96451.50;;;27.14;100.00
64141;BME280;50436;50.618;7.932;2023-06-22T10:23:25;96442.53;;;26.26;100.00
64141;BME280;50436;50.618;7.932;2023-06-22T10:26:11;96429.59;;;26.26;100.00
64141;BME280;50436;50.618;7.932;2023-06-22T10:28:57;96430.88;;;26.01;100.00
64141;BME280;50436;50.618;7.932;2023-06-22T10:31:42;96420.94;;;26.24;100.00
64141;BME280;50436;50.618;7.932;2023-06-22T10:34:28;96418.81;;;26.33;100.00
64141;BME280;50436;50.618;7.932;2023-06-22T10:37:14;96422.06;;;26.67;100.00
64141;BME280;50436;50.618;7.932;2023-06-22T10:40:00;96411.19;;;27.02;100.00
64141;BME280;50436;50.618;7.932;2023-06-22T10:42:46;96399.25;;;26.79;100.00
64141;BME280;50436;50.618;7.932;2023-06-22T10:45:32;96412.41;;;26.14;100.00
64141;BME280;50436;50.618;7.932;2023-06-22T10:48:18;96448.50;;;25.75;100.00
64141;BME280;50436;50.618;7.932;2023-06-22T10:51:04;96503.69;;;25.37;100.00
64141;BME280;50436;50.618;7.932;2023-06-22T10:53:50;96539.56;;;24.99;100.00
64141;BME280;50436;50.618;7.932;2023-06-22T10:56:36;96550.50;;;24.99;100.00
64141;BME280;50436;50.618;7.932;2023-06-22T10:59:22;96520.56;;;25.15;100.00
64141;BME280;50436;50.618;7.932;2023-06-22T11:02:09;96514.94;;;25.11;100.00
64141;BME280;50436;50.618;7.932;2023-06-22T11:04:55;96507.44;;;25.20;100.00
64141;BME280;50436;50.618;7.932;2023-06-22T11:07:42;96520.88;;;25.13;100.00
64141;BME280;50436;50.618;7.932;2023-06-22T11:10:29;96506.09;;;25.39;100.00
64141;BME280;50436;50.618;7.932;2023-06-22T11:13:15;96457.03;;;26.26;100.00
64141;BME280;50436;50.618;7.932;2023-06-22T11:16:00;96438.66;;;27.18;100.00
64141;BME280;50436;50.618;7.932;2023-06-22T11:18:46;96421.91;;;27.74;100.00
64141;BME280;50436;50.618;7.932;2023-06-22T11:21:32;96421.50;;;28.95;100.00
64141;BME280;50436;50.618;7.932;2023-06-22T11:24:18;96422.34;;;28.99;100.00
64141;BME280;50436;50.618;7.932;2023-06-22T11:27:04;96406.47;;;30.69;100.00
64141;BME280;50436;50.618;7.932;2023-06-22T11:29:50;96410.63;;;30.52;92.54
64141;BME280;50436;50.618;7.932;2023-06-22T11:32:38;96417.50;;;31.72;90.85
64141;BME280;50436;50.618;7.932;2023-06-22T11:35:24;96427.53;;;31.32;91.60
64141;BME280;50436;50.618;7.932;2023-06-22T11:38:11;96435.50;;;30.97;92.64
64141;BME280;50436;50.618;7.932;2023-06-22T11:40:58;96436.47;;;31.19;93.44
64141;BME280;50436;50.618;7.932;2023-06-22T11:43:44;96419.31;;;29.57;91.16
64141;BME280;50436;50.618;7.932;2023-06-22T11:46:30;96427.25;;;29.62;94.45
64141;BME280;50436;50.618;7.932;2023-06-22T11:49:17;96417.28;;;30.89;86.92
64141;BME280;50436;50.618;7.932;2023-06-22T11:52:03;96432.13;;;31.69;87.55
64141;BME280;50436;50.618;7.932;2023-06-22T11:54:49;96415.88;;;32.40;83.66
64141;BME280;50436;50.618;7.932;2023-06-22T11:57:36;96415.38;;;34.86;71.94
64141;BME280;50436;50.618;7.932;2023-06-22T12:00:22;96413.00;;;35.40;72.18
64141;BME280;50436;50.618;7.932;2023-06-22T12:03:09;96415.56;;;33.45;79.20
64141;BME280;50436;50.618;7.932;2023-06-22T12:05:57;96407.25;;;30.66;84.71
64141;BME280;50436;50.618;7.932;2023-06-22T12:08:43;96394.78;;;30.46;91.18
64141;BME280;50436;50.618;7.932;2023-06-22T12:11:29;96395.34;;;30.62;89.46
64141;BME280;50436;50.618;7.932;2023-06-22T12:14:15;96393.59;;;30.88;89.37
64141;BME280;50436;50.618;7.932;2023-06-22T12:17:01;96376.91;;;31.21;87.01
64141;BME280;50436;50.618;7.932;2023-06-22T12:19:47;96370.50;;;31.72;86.35
64141;BME280;50436;50.618;7.932;2023-06-22T12:22:34;96370.03;;;32.54;87.15
64141;BME280;50436;50.618;7.932;2023-06-22T12:25:20;96356.50;;;33.59;83.45
64141;BME280;50436;50.618;7.932;2023-06-22T12:28:06;96358.75;;;34.03;82.68
64141;BME280;50436;50.618;7.932;2023-06-22T12:30:52;96332.34;;;34.44;81.17
64141;BME280;50436;50.618;7.932;2023-06-22T12:33:38;96343.22;;;34.13;83.58
64141;BME280;50436;50.618;7.932;2023-06-22T12:36:24;96332.94;;;36.23;76.66
64141;BME280;50436;50.618;7.932;2023-06-22T12:39:10;96320.28;;;36.46;75.32
64141;BME280;50436;50.618;7.932;2023-06-22T12:41:56;96322.38;;;39.78;62.79
64141;BME280;50436;50.618;7.932;2023-06-22T12:44:42;96316.59;;;41.69;52.08
64141;BME280;50436;50.618;7.932;2023-06-22T12:47:28;96307.44;;;44.21;39.26
64141;BME280;50436;50.618;7.932;2023-06-22T12:50:14;96305.91;;;40.47;56.15
64141;BME280;50436;50.618;7.932;2023-06-22T12:53:00;96306.34;;;42.99;44.24
64141;BME280;50436;50.618;7.932;2023-06-22T12:55:48;96313.81;;;45.45;35.85
64141;BME280;50436;50.618;7.932;2023-06-22T12:58:34;96301.28;;;44.32;36.08
64141;BME280;50436;50.618;7.932;2023-06-22T13:01:19;96296.94;;;45.89;33.00
64141;BME280;50436;50.618;7.932;2023-06-22T13:04:06;96292.09;;;47.65;29.07
64141;BME280;50436;50.618;7.932;2023-06-22T13:06:52;96296.19;;;48.48;26.32
64141;BME280;50436;50.618;7.932;2023-06-22T13:09:38;96290.09;;;42.14;27.35
64141;BME280;50436;50.618;7.932;2023-06-22T13:12:24;96292.50;;;37.76;46.78
64141;BME280;50436;50.618;7.932;2023-06-22T13:15:10;96272.03;;;38.71;49.97
64141;BME280;50436;50.618;7.932;2023-06-22T13:17:56;96249.91;;;41.16;35.39
64141;BME280;50436;50.618;7.932;2023-06-22T13:20:41;96246.22;;;41.85;36.13
64141;BME280;50436;50.618;7.932;2023-06-22T13:23:27;96242.75;;;43.29;31.09
64141;BME280;50436;50.618;7.932;2023-06-22T13:26:13;96228.34;;;43.18;30.60
64141;BME280;50436;50.618;7.932;2023-06-22T13:28:59;96227.75;;;41.75;31.35
64141;BME280;50436;50.618;7.932;2023-06-22T13:31:45;96226.16;;;39.72;39.40
64141;BME280;50436;50.618;7.932;2023-06-22T13:34:31;96211.72;;;39.44;37.09
64141;BME280;50436;50.618;7.932;2023-06-22T13:37:17;96204.41;;;39.76;40.03
64141;BME280;50436;50.618;7.932;2023-06-22T13:40:06;96189.66;;;38.43;39.79
64141;BME280;50436;50.618;7.932;2023-06-22T13:42:52;96210.47;;;39.62;42.60
64141;BME280;50436;50.618;7.932;2023-06-22T13:45:38;96195.69;;;40.98;37.78
64141;BME280;50436;50.618;7.932;2023-06-22T13:48:24;96176.44;;;40.74;33.31
64141;BME280;50436;50.618;7.932;2023-06-22T13:51:11;96162.22;;;40.69;36.34
64141;BME280;50436;50.618;7.932;2023-06-22T13:53:57;96155.03;;;40.68;33.86
64141;BME280;50436;50.618;7.932;2023-06-22T13:56:43;96148.03;;;40.37;34.61
64141;BME280;50436;50.618;7.932;2023-06-22T13:59:29;96132.91;;;41.26;32.76
64141;BME280;50436;50.618;7.932;2023-06-22T14:02:16;96105.13;;;42.21;34.29
64141;BME280;50436;50.618;7.932;2023-06-22T14:05:01;96099.72;;;39.61;35.60
64141;BME280;50436;50.618;7.932;2023-06-22T14:07:48;96090.47;;;36.11;52.34
64141;BME280;50436;50.618;7.932;2023-06-22T14:10:34;96096.91;;;33.72;70.20
64141;BME280;50436;50.618;7.932;2023-06-22T14:13:20;96092.22;;;32.92;74.48
64141;BME280;50436;50.618;7.932;2023-06-22T14:16:06;96095.94;;;31.89;79.62
64141;BME280;50436;50.618;7.932;2023-06-22T14:18:51;96110.25;;;30.10;86.54
64141;BME280;50436;50.618;7.932;2023-06-22T14:21:37;96115.94;;;29.84;88.37
64141;BME280;50436;50.618;7.932;2023-06-22T14:24:23;96090.69;;;29.34;90.72
64141;BME280;50436;50.618;7.932;2023-06-22T14:27:09;96078.41;;;29.72;90.20
64141;BME280;50436;50.618;7.932;2023-06-22T14:29:55;96061.03;;;29.64;89.62
64141;BME280;50436;50.618;7.932;2023-06-22T14:32:43;96044.50;;;29.64;91.95
64141;BME280;50436;50.618;7.932;2023-06-22T14:35:29;96058.44;;;29.41;93.40
64141;BME280;50436;50.618;7.932;2023-06-22T14:38:18;96044.44;;;29.17;94.78
64141;BME280;50436;50.618;7.932;2023-06-22T14:41:04;96035.00;;;28.80;98.66